createdAt,value
2023-03-06T00:01:09.415Z,7.20
2023-03-06T00:03:37.373Z,6.38
2023-03-06T00:06:05.874Z,6.88
2023-03-06T00:08:33.873Z,6.50
2023-03-06T00:11:02.181Z,7.55
2023-03-06T00:13:32.261Z,7.28
2023-03-06T00:16:01.261Z,6.70
2023-03-06T00:18:29.162Z,6.75
2023-03-06T00:20:58.406Z,7.05
2023-03-06T00:23:27.650Z,7.18
2023-03-06T00:25:55.905Z,7.05
2023-03-06T00:28:25.169Z,6.97
2023-03-06T00:30:53.351Z,7.22
2023-03-06T00:33:21.278Z,7.50
2023-03-06T00:35:50.594Z,6.57
2023-03-06T00:38:18.586Z,8.05
2023-03-06T00:40:46.902Z,7.03
2023-03-06T00:43:14.905Z,7.72
2023-03-06T00:45:43.590Z,7.38
2023-03-06T00:48:11.522Z,7.25
2023-03-06T00:50:39.844Z,7.55
2023-03-06T00:53:07.746Z,7.38
2023-03-06T00:56:42.168Z,7.63
2023-03-06T00:59:11.735Z,7.18
2023-03-06T01:01:39.599Z,7.95
2023-03-06T01:04:07.829Z,7.72
2023-03-06T01:06:36.022Z,7.65
2023-03-06T01:09:06.090Z,7.82
2023-03-06T01:11:34.067Z,7.18
2023-03-06T01:14:02.436Z,8.38
2023-03-06T01:16:30.588Z,7.50
2023-03-06T01:18:59.180Z,7.43
2023-03-06T01:21:27.191Z,8.30
2023-03-06T01:23:55.323Z,7.75
2023-03-06T01:26:24.903Z,7.65
2023-03-06T01:28:54.160Z,7.72
2023-03-06T01:31:22.755Z,7.75
2023-03-06T01:33:51.278Z,8.38
2023-03-06T01:36:20.779Z,7.55
2023-03-06T01:38:50.328Z,8.93
2023-03-06T01:43:47.368Z,8.05
2023-03-06T01:46:44.241Z,8.98
2023-03-06T01:49:26.099Z,7.47
2023-03-06T01:52:06.322Z,8.13
2023-03-06T01:55:10.955Z,8.07
2023-03-06T01:57:44.178Z,8.32
2023-03-06T02:00:16.224Z,8.20
2023-03-06T02:02:50.866Z,8.98
2023-03-06T02:05:18.946Z,8.20
2023-03-06T02:07:48.400Z,8.32
2023-03-06T02:10:19.628Z,8.85
2023-03-06T02:15:19.581Z,8.80
2023-03-06T02:17:54.653Z,8.98
2023-03-06T02:20:34.202Z,8.70
2023-03-06T02:23:14.882Z,8.80
2023-03-06T02:25:47.244Z,8.27
2023-03-06T02:28:18.594Z,9.07
2023-03-06T02:30:50.322Z,9.55
2023-03-06T02:35:57.812Z,8.68
2023-03-06T02:38:33.106Z,9.15
2023-03-06T02:41:04.055Z,10.13
2023-03-06T02:43:36.778Z,9.48
2023-03-06T02:46:04.880Z,8.82
2023-03-06T02:48:33.932Z,9.75
2023-03-06T02:51:01.952Z,9.32
2023-03-06T02:53:30.199Z,10.00
2023-03-06T02:56:02.000Z,9.27
2023-03-06T02:58:31.665Z,9.43
2023-03-06T03:01:00.440Z,8.82
2023-03-06T03:03:28.677Z,9.82
2023-03-06T03:05:56.885Z,10.00
2023-03-06T03:08:30.186Z,9.18
2023-03-06T03:11:02.316Z,10.15
2023-03-06T03:13:38.385Z,9.68
2023-03-06T03:16:11.171Z,9.88
2023-03-06T03:18:39.466Z,8.60
2023-03-06T03:21:09.071Z,9.63
2023-03-06T03:23:37.396Z,9.63
2023-03-06T03:26:18.887Z,10.13
2023-03-06T03:29:02.020Z,9.27
2023-03-06T03:31:30.051Z,10.40
2023-03-06T03:33:58.391Z,9.95
2023-03-06T03:36:27.584Z,9.90
2023-03-06T03:38:57.724Z,9.80
2023-03-06T03:41:25.923Z,10.63
2023-03-06T03:43:54.348Z,10.05
2023-03-06T03:46:23.646Z,10.48
2023-03-06T03:48:55.589Z,10.38
2023-03-06T03:51:23.620Z,10.32
2023-03-06T03:53:58.126Z,10.85
2023-03-06T03:56:32.341Z,11.20
2023-03-06T03:59:09.816Z,10.32
2023-03-06T04:01:46.083Z,9.68
2023-03-06T04:04:16.285Z,10.98
2023-03-06T04:06:46.277Z,9.30
2023-03-06T04:09:16.016Z,10.23
2023-03-06T04:11:44.245Z,9.68
2023-03-06T04:14:12.695Z,10.88
2023-03-06T04:16:40.819Z,10.40
2023-03-06T04:19:09.900Z,10.95
2023-03-06T04:21:37.881Z,10.60
2023-03-06T04:24:09.291Z,10.73
2023-03-06T04:26:37.367Z,10.73
2023-03-06T04:29:06.824Z,10.60
2023-03-06T04:31:36.980Z,10.07
2023-03-06T04:34:05.736Z,9.93
2023-03-06T04:36:34.975Z,10.55
2023-03-06T04:39:07.828Z,10.60
2023-03-06T04:41:36.326Z,11.63
2023-03-06T04:44:04.566Z,9.32
2023-03-06T04:46:32.736Z,11.18
2023-03-06T04:49:01.170Z,9.80
2023-03-06T04:51:29.622Z,10.50
2023-03-06T04:53:59.040Z,10.98
2023-03-06T04:56:26.909Z,9.80
2023-03-06T04:58:55.049Z,10.38
2023-03-06T05:01:23.343Z,10.63
2023-03-06T05:03:51.765Z,10.93
2023-03-06T05:06:19.691Z,10.07
2023-03-06T05:08:48.099Z,10.65
2023-03-06T05:11:16.061Z,9.60
2023-03-06T05:13:44.574Z,11.13
2023-03-06T05:16:12.736Z,9.73
2023-03-06T05:18:40.980Z,9.55
2023-03-06T05:21:09.068Z,10.15
2023-03-06T05:23:38.699Z,10.45
2023-03-06T05:26:12.278Z,10.27
2023-03-06T05:28:41.202Z,10.63
2023-03-06T05:31:09.679Z,10.15
2023-03-06T05:33:38.072Z,10.70
2023-03-06T05:36:08.599Z,10.50
2023-03-06T05:38:37.272Z,11.40
2023-03-06T05:41:05.891Z,10.75
2023-03-06T05:43:34.160Z,10.73
2023-03-06T05:46:06.738Z,10.32
2023-03-06T05:48:36.405Z,10.52
2023-03-06T05:51:05.332Z,10.32
2023-03-06T05:53:33.618Z,8.77
2023-03-06T05:56:06.869Z,10.57
2023-03-06T05:58:35.646Z,10.27
2023-03-06T06:01:30.384Z,10.45
2023-03-06T06:04:00.047Z,8.80
2023-03-06T06:06:27.983Z,10.15
2023-03-06T06:08:56.158Z,9.65
2023-03-06T06:11:24.091Z,9.65
2023-03-06T06:13:52.441Z,9.77
2023-03-06T06:16:20.764Z,9.20
2023-03-06T06:18:51.867Z,9.57
2023-03-06T06:21:20.170Z,10.00
2023-03-06T06:23:48.550Z,9.55
2023-03-06T06:26:16.595Z,10.25
2023-03-06T06:28:45.040Z,9.43
2023-03-06T06:31:13.533Z,9.73
2023-03-06T06:33:44.625Z,9.73
2023-03-06T06:36:17.544Z,9.97
2023-03-06T06:38:47.107Z,9.45
2023-03-06T06:44:08.860Z,9.38
2023-03-06T06:49:26.766Z,9.38
2023-03-06T06:51:55.643Z,9.50
2023-03-06T06:54:26.068Z,9.88
2023-03-06T06:56:58.829Z,9.50
2023-03-06T06:59:29.982Z,10.02
2023-03-06T07:01:58.310Z,8.25
2023-03-06T07:04:26.794Z,10.23
2023-03-06T07:06:58.557Z,9.88
2023-03-06T07:09:27.053Z,9.35
2023-03-06T07:11:56.507Z,9.15
2023-03-06T07:14:25.223Z,8.75
2023-03-06T07:16:56.557Z,10.00
2023-03-06T07:19:27.341Z,9.52
2023-03-06T07:21:56.510Z,9.40
2023-03-06T07:24:24.850Z,8.57
2023-03-06T07:26:52.837Z,9.23
2023-03-06T07:29:23.052Z,9.00
2023-03-06T07:31:50.985Z,8.88
2023-03-06T07:34:19.412Z,9.15
2023-03-06T07:36:51.816Z,7.70
2023-03-06T07:39:21.826Z,8.80
2023-03-06T07:41:50.094Z,8.05
2023-03-06T07:44:20.411Z,7.45
2023-03-06T07:46:49.392Z,7.20
2023-03-06T07:49:23.247Z,6.43
2023-03-06T07:51:53.298Z,7.28
2023-03-06T07:54:22.784Z,6.80
2023-03-06T07:57:01.773Z,6.65
2023-03-06T07:59:31.461Z,6.72
2023-03-06T08:02:03.509Z,7.10
2023-03-06T08:04:36.827Z,6.80
2023-03-06T08:07:05.167Z,6.88
2023-03-06T08:09:34.866Z,6.72
2023-03-06T08:12:03.139Z,7.70
2023-03-06T08:14:34.396Z,7.10
2023-03-06T08:17:03.475Z,6.03
2023-03-06T08:19:33.206Z,6.10
2023-03-06T08:22:01.915Z,6.90
2023-03-06T08:24:30.443Z,6.65
2023-03-06T08:27:00.397Z,6.65
2023-03-06T08:29:32.092Z,7.00
2023-03-06T08:32:04.004Z,6.43
2023-03-06T08:34:34.097Z,7.35
2023-03-06T08:37:05.022Z,7.15
2023-03-06T08:39:35.654Z,7.72
2023-03-06T08:42:11.495Z,6.72
2023-03-06T08:44:40.359Z,7.05
2023-03-06T08:47:16.035Z,6.80
2023-03-06T08:49:46.088Z,6.35
2023-03-06T08:52:15.002Z,6.95
2023-03-06T08:54:53.189Z,6.73
2023-03-06T08:57:31.031Z,5.50
2023-03-06T09:00:03.432Z,6.38
2023-03-06T09:02:35.167Z,5.60
2023-03-06T09:05:11.065Z,6.53
2023-03-06T09:07:40.552Z,6.75
2023-03-06T09:10:16.287Z,6.00
2023-03-06T09:12:51.278Z,6.20
2023-03-06T09:15:33.072Z,6.55
2023-03-06T09:20:58.115Z,6.53
2023-03-06T09:26:53.421Z,6.03
2023-03-06T09:33:57.134Z,6.13
2023-03-06T09:36:25.478Z,5.80
2023-03-06T09:38:54.912Z,5.90
2023-03-06T09:41:33.087Z,6.10
2023-03-06T09:44:19.641Z,6.23
2023-03-06T09:47:07.150Z,6.35
2023-03-06T09:49:59.077Z,6.30
2023-03-06T09:53:01.844Z,6.15
2023-03-06T09:55:39.154Z,5.75
2023-03-06T09:58:22.017Z,6.97
2023-03-06T10:00:53.404Z,5.60
2023-03-06T10:03:34.511Z,6.30
2023-03-06T10:06:22.910Z,6.18
2023-03-06T10:09:12.085Z,6.15
2023-03-06T10:12:01.169Z,6.30
2023-03-06T10:14:32.388Z,5.40
2023-03-06T10:17:02.281Z,5.85
2023-03-06T10:19:41.493Z,6.22
2023-03-06T10:22:55.382Z,6.15
2023-03-06T10:25:43.738Z,6.07
2023-03-06T10:28:27.675Z,6.32
2023-03-06T10:33:42.392Z,6.03
2023-03-06T10:36:17.075Z,5.72
2023-03-06T10:38:48.512Z,6.30
2023-03-06T10:41:27.704Z,5.93
2023-03-06T10:44:05.313Z,6.75
2023-03-06T10:46:37.776Z,6.07
2023-03-06T10:49:30.621Z,5.68
2023-03-06T10:52:09.620Z,6.05
2023-03-06T10:54:40.969Z,6.35
2023-03-06T10:57:25.634Z,6.15
2023-03-06T10:59:55.252Z,6.28
2023-03-06T11:02:37.301Z,6.10
2023-03-06T11:05:17.832Z,6.28
2023-03-06T11:07:59.238Z,6.43
2023-03-06T11:10:29.281Z,5.72
2023-03-06T11:13:04.707Z,6.88
2023-03-06T11:15:33.275Z,6.10
2023-03-06T11:18:08.928Z,6.18
2023-03-06T11:20:52.566Z,6.15
2023-03-06T11:23:30.318Z,5.95
2023-03-06T11:26:05.981Z,5.05
2023-03-06T11:28:39.742Z,5.40
2023-03-06T11:31:22.370Z,5.57
2023-03-06T11:34:12.024Z,5.03
2023-03-06T11:36:58.830Z,4.40
2023-03-06T11:39:48.164Z,4.63
2023-03-06T11:42:26.396Z,5.18
2023-03-06T11:45:28.816Z,5.00
2023-03-06T11:48:15.952Z,5.05
2023-03-06T11:50:48.789Z,4.80
2023-03-06T11:53:32.407Z,4.78
2023-03-06T11:56:31.991Z,4.85
2023-03-06T11:59:12.924Z,4.63
2023-03-06T12:02:00.858Z,4.63
2023-03-06T12:05:01.131Z,5.47
2023-03-06T12:07:43.452Z,5.10
2023-03-06T12:10:51.590Z,4.97
2023-03-06T12:13:55.382Z,4.82
2023-03-06T12:17:07.042Z,4.70
2023-03-06T12:20:21.107Z,4.50
2023-03-06T12:23:24.567Z,4.97
2023-03-06T12:26:24.574Z,4.53
2023-03-06T12:29:38.611Z,5.30
2023-03-06T12:32:46.174Z,4.10
2023-03-06T12:35:35.483Z,4.07
2023-03-06T12:38:36.989Z,3.58
2023-03-06T12:41:16.993Z,4.00
2023-03-06T12:44:09.537Z,3.85
2023-03-06T12:46:54.396Z,3.63
2023-03-06T12:49:31.926Z,3.60
2023-03-06T12:52:02.288Z,3.40
2023-03-06T12:54:33.620Z,3.72
2023-03-06T12:57:02.508Z,3.22
2023-03-06T12:59:44.563Z,4.00
2023-03-06T13:02:50.328Z,3.80
2023-03-06T13:05:38.854Z,3.70
2023-03-06T13:08:12.696Z,3.50
2023-03-06T13:10:42.262Z,4.10
2023-03-06T13:13:33.472Z,4.10
2023-03-06T13:16:10.207Z,4.10
2023-03-06T13:18:41.768Z,4.38
2023-03-06T13:21:41.252Z,3.80
2023-03-06T13:24:28.521Z,3.65
2023-03-06T13:27:04.798Z,3.60
2023-03-06T13:29:36.107Z,3.55
2023-03-06T13:32:04.029Z,4.25
2023-03-06T13:34:32.267Z,4.13
2023-03-06T13:37:23.442Z,3.88
2023-03-06T13:40:00.472Z,4.00
2023-03-06T13:42:29.338Z,3.65
2023-03-06T13:45:17.492Z,4.60
2023-03-06T13:48:21.034Z,4.20
2023-03-06T13:50:49.509Z,4.07
2023-03-06T13:53:31.790Z,4.10
2023-03-06T13:56:17.623Z,4.20
2023-03-06T13:58:54.427Z,4.07
2023-03-06T14:01:41.808Z,4.18
2023-03-06T14:04:33.426Z,4.47
2023-03-06T14:07:24.710Z,4.72
2023-03-06T14:10:10.644Z,4.20
2023-03-06T14:12:50.650Z,4.00
2023-03-06T14:15:25.391Z,4.32
2023-03-06T14:17:59.165Z,3.83
2023-03-06T14:20:42.403Z,4.38
2023-03-06T14:23:21.036Z,3.40
2023-03-06T14:26:00.811Z,3.50
2023-03-06T14:28:31.763Z,3.65
2023-03-06T14:31:01.896Z,3.70
2023-03-06T14:33:43.167Z,3.70
2023-03-06T14:36:15.395Z,3.87
2023-03-06T14:38:51.141Z,3.90
2023-03-06T14:41:26.323Z,3.97
2023-03-06T14:44:24.086Z,4.32
2023-03-06T14:46:56.442Z,4.35
2023-03-06T14:49:26.213Z,3.72
2023-03-06T14:52:00.691Z,3.60
2023-03-06T14:54:36.896Z,3.70
2023-03-06T14:57:12.834Z,3.60
2023-03-06T14:59:53.141Z,3.95
2023-03-06T15:02:24.079Z,4.63
2023-03-06T15:05:00.167Z,3.67
2023-03-06T15:07:31.389Z,4.13
2023-03-06T15:10:00.609Z,4.20
2023-03-06T15:12:31.132Z,4.35
2023-03-06T15:15:10.560Z,4.07
2023-03-06T15:17:43.129Z,3.65
2023-03-06T15:20:38.124Z,3.83
2023-03-06T15:23:24.556Z,4.05
2023-03-06T15:26:00.036Z,3.53
2023-03-06T15:28:38.823Z,4.18
2023-03-06T15:31:28.013Z,4.40
2023-03-06T15:34:09.246Z,4.18
2023-03-06T15:36:43.433Z,4.35
2023-03-06T15:39:35.656Z,4.38
2023-03-06T15:42:20.425Z,4.70
2023-03-06T15:44:50.676Z,4.97
2023-03-06T15:47:19.544Z,5.50
2023-03-06T15:49:52.075Z,5.85
2023-03-06T15:52:22.088Z,5.72
2023-03-06T15:54:50.063Z,5.30
2023-03-06T15:57:26.721Z,5.30
2023-03-06T15:59:56.269Z,4.40
2023-03-06T16:02:24.708Z,3.65
2023-03-06T16:04:53.176Z,4.18
2023-03-06T16:07:21.455Z,4.18
2023-03-06T16:09:49.437Z,3.63
2023-03-06T16:12:20.948Z,2.92
2023-03-06T16:14:49.472Z,2.83
2023-03-06T16:17:18.181Z,3.15
2023-03-06T16:19:45.974Z,3.10
2023-03-06T16:22:14.581Z,3.70
2023-03-06T16:24:44.702Z,3.00
2023-03-06T16:27:23.523Z,3.00
2023-03-06T16:29:51.297Z,3.30
2023-03-06T16:32:21.665Z,2.88
2023-03-06T16:34:49.502Z,2.83
2023-03-06T16:37:17.960Z,3.00
2023-03-06T16:39:46.152Z,2.63
2023-03-06T16:44:11.121Z,2.58
2023-03-06T16:46:42.741Z,3.22
2023-03-06T16:51:46.270Z,2.45
2023-03-06T16:54:14.556Z,2.67
2023-03-06T16:56:45.700Z,2.50
2023-03-06T16:59:13.929Z,2.47
2023-03-06T17:01:44.895Z,2.20
2023-03-06T17:04:12.976Z,2.67
2023-03-06T17:06:42.026Z,2.08
2023-03-06T17:09:14.473Z,2.78
2023-03-06T17:11:46.715Z,2.80
2023-03-06T17:14:14.615Z,2.50
2023-03-06T17:16:42.753Z,2.58
2023-03-06T17:19:14.457Z,2.90
2023-03-06T17:21:43.706Z,3.20
2023-03-06T17:24:11.633Z,2.80
2023-03-06T17:26:40.278Z,3.17
2023-03-06T17:29:09.422Z,2.90
2023-03-06T17:31:38.152Z,2.75
2023-03-06T17:34:06.176Z,2.92
2023-03-06T17:36:37.074Z,2.63
2023-03-06T17:39:05.660Z,2.70
2023-03-06T17:41:34.340Z,3.08
2023-03-06T17:44:02.431Z,3.05
2023-03-06T17:46:34.705Z,2.58
2023-03-06T17:49:03.020Z,2.90
2023-03-06T17:51:31.254Z,2.85
2023-03-06T17:53:59.228Z,2.70
2023-03-06T17:56:27.438Z,3.13
2023-03-06T17:58:55.513Z,3.70
2023-03-06T18:01:28.657Z,3.40
2023-03-06T18:03:57.226Z,3.10
2023-03-06T18:06:27.853Z,3.05
2023-03-06T18:09:08.624Z,3.30
2023-03-06T18:12:06.112Z,3.20
2023-03-06T18:18:06.983Z,3.05
2023-03-06T18:20:42.565Z,3.10
2023-03-06T18:23:16.455Z,3.08
2023-03-06T18:25:46.471Z,3.47
2023-03-06T18:28:14.633Z,3.33
2023-03-06T18:30:42.647Z,3.13
2023-03-06T18:33:10.828Z,3.30
2023-03-06T18:35:38.784Z,3.38
2023-03-06T18:38:09.610Z,3.35
2023-03-06T18:40:41.938Z,3.47
2023-03-06T18:43:10.291Z,3.63
2023-03-06T18:45:38.491Z,3.63
2023-03-06T18:48:07.116Z,3.30
2023-03-06T18:50:35.230Z,3.53
2023-03-06T18:53:03.409Z,3.55
2023-03-06T18:55:32.702Z,3.20
2023-03-06T18:58:00.887Z,4.35
2023-03-06T19:00:28.843Z,3.53
2023-03-06T19:02:57.014Z,3.28
2023-03-06T19:05:25.580Z,3.90
2023-03-06T19:07:53.862Z,3.53
2023-03-06T19:10:22.643Z,3.65
2023-03-06T19:12:50.904Z,3.47
2023-03-06T19:15:18.789Z,3.63
2023-03-06T19:17:49.631Z,3.15
2023-03-06T19:20:18.006Z,3.42
2023-03-06T19:22:46.525Z,4.00
2023-03-06T19:25:15.900Z,3.05
2023-03-06T19:27:46.085Z,3.70
2023-03-06T19:30:14.990Z,2.97
2023-03-06T19:32:46.968Z,3.42
2023-03-06T19:35:14.883Z,3.55
2023-03-06T19:37:43.033Z,3.40
2023-03-06T19:40:11.577Z,2.90
2023-03-06T19:42:39.914Z,2.80
2023-03-06T19:45:08.790Z,2.08
2023-03-06T19:47:36.974Z,1.92
2023-03-06T19:50:05.388Z,2.17
2023-03-06T19:52:37.094Z,2.53
2023-03-06T19:55:05.575Z,2.55
2023-03-06T19:57:33.658Z,3.60
2023-03-06T20:00:02.003Z,2.50
2023-03-06T20:02:40.963Z,2.28
2023-03-06T20:05:09.438Z,2.20
2023-03-06T20:07:37.631Z,2.00
2023-03-06T20:10:05.766Z,2.72
2023-03-06T20:12:34.354Z,3.13
2023-03-06T20:15:05.559Z,2.90
2023-03-06T20:20:02.582Z,2.92
2023-03-06T20:22:30.748Z,3.35
2023-03-06T20:24:58.612Z,3.00
2023-03-06T20:27:28.996Z,3.10
2023-03-06T20:29:57.552Z,3.97
2023-03-06T20:32:25.739Z,4.18
2023-03-06T20:34:53.741Z,4.32
2023-03-06T20:37:22.026Z,4.90
2023-03-06T20:39:50.000Z,5.20
2023-03-06T20:42:18.282Z,5.53
2023-03-06T20:44:46.270Z,5.25
2023-03-06T20:47:14.562Z,5.78
2023-03-06T20:49:45.625Z,5.53
2023-03-06T20:52:13.861Z,4.90
2023-03-06T20:54:41.984Z,5.10
2023-03-06T20:57:10.181Z,5.30
2023-03-06T20:59:38.523Z,4.72
2023-03-06T21:02:10.829Z,4.65
2023-03-06T21:04:42.179Z,4.07
2023-03-06T21:09:42.152Z,3.67
2023-03-06T21:12:11.158Z,4.03
2023-03-06T21:14:40.533Z,3.75
2023-03-06T21:17:23.325Z,4.15
2023-03-06T21:19:53.800Z,3.85
2023-03-06T21:22:22.443Z,3.78
2023-03-06T21:24:50.512Z,4.10
2023-03-06T21:27:19.132Z,3.60
2023-03-06T21:29:47.010Z,3.88
2023-03-06T21:32:17.686Z,3.53
2023-03-06T21:34:48.395Z,3.47
2023-03-06T21:37:18.095Z,3.60
2023-03-06T21:39:53.271Z,3.90
2023-03-06T21:42:30.739Z,3.60
2023-03-06T21:45:04.922Z,3.42
2023-03-06T21:47:43.279Z,3.53
2023-03-06T21:53:51.273Z,3.60
2023-03-06T21:56:22.517Z,3.53
2023-03-06T21:59:20.991Z,3.80
2023-03-06T22:02:19.225Z,3.50
2023-03-06T22:05:25.172Z,3.40
2023-03-06T22:08:04.199Z,3.30
2023-03-06T22:10:41.672Z,3.08
2023-03-06T22:13:22.619Z,3.58
2023-03-06T22:16:01.473Z,3.38
2023-03-06T22:18:31.284Z,3.45
2023-03-06T22:21:01.152Z,3.50
2023-03-06T22:23:33.897Z,3.45
2023-03-06T22:26:09.350Z,3.30
2023-03-06T22:28:38.142Z,3.25
2023-03-06T22:31:25.402Z,3.35
2023-03-06T22:33:55.470Z,3.30
2023-03-06T22:36:24.391Z,3.25
2023-03-06T22:38:58.324Z,3.30
2023-03-06T22:41:27.124Z,3.60
2023-03-06T22:43:57.217Z,3.72
2023-03-06T22:46:27.363Z,3.42
2023-03-06T22:49:00.470Z,3.40
2023-03-06T22:51:30.740Z,3.25
2023-03-06T22:54:00.044Z,3.20
2023-03-06T22:56:29.378Z,3.40
2023-03-06T22:59:02.402Z,3.17
2023-03-06T23:04:12.209Z,3.33
2023-03-06T23:06:42.078Z,3.03
2023-03-06T23:09:21.040Z,4.45
2023-03-06T23:12:13.559Z,3.17
2023-03-06T23:15:03.052Z,3.20
2023-03-06T23:17:52.013Z,3.95
2023-03-06T23:20:44.142Z,3.40
2023-03-06T23:23:30.677Z,3.65
2023-03-06T23:25:59.724Z,3.10
2023-03-06T23:28:28.869Z,3.35
2023-03-06T23:30:57.396Z,2.88
2023-03-06T23:33:25.804Z,2.85
2023-03-06T23:35:53.937Z,3.25
2023-03-06T23:38:22.857Z,3.40
2023-03-06T23:40:56.873Z,2.88
2023-03-06T23:43:28.761Z,3.13
2023-03-06T23:45:57.235Z,3.30
2023-03-06T23:48:29.647Z,2.97
2023-03-06T23:50:59.309Z,2.80
2023-03-06T23:53:28.844Z,2.78
2023-03-06T23:55:57.189Z,2.83
2023-03-06T23:58:27.377Z,2.85
